This is the latest recevied weather packets stored in our database for station/object VK3HAG. If no packets are shown the sender has not sent any weather packets the latest 10 day(s).
| Time | Temp. | Humidity | Pressure | Rain* | Wind** | Luminosity | Snow |
|---|---|---|---|---|---|---|---|
| 1777536005 | 19.44° C | 60% | 1022.8 hPa | 0 mm | - | - | - |
| 1777535105 | 20.56° C | 57% | 1022.8 hPa | 0 mm | - | - | - |
| 1777534205 | 21.67° C | 55% | 1022.7 hPa | 0 mm | - | - | - |
| 1777533305 | 22.22° C | 53% | 1022.7 hPa | 0 mm | - | - | - |
| 1777532404 | 22.22° C | 51% | 1022.6 hPa | 0 mm | - | - | - |
| 1777531504 | 22.78° C | 50% | 1022.5 hPa | 0 mm | - | - | - |
| 1777530605 | 23.33° C | 49% | 1022.6 hPa | 0 mm | - | - | - |
| 1777529704 | 23.33° C | 50% | 1022.6 hPa | 0 mm | - | - | - |
| 1777528805 | 23.33° C | 50% | 1022.6 hPa | 0 mm | - | - | - |
| 1777527904 | 24.44° C | 49% | 1022.7 hPa | 0 mm | - | - | - |
| 1777527005 | 24.44° C | 49% | 1022.8 hPa | 0 mm | - | - | - |
| 1777526105 | 25° C | 47% | 1022.8 hPa | 0 mm | - | - | - |
| 1777525204 | 24.44° C | 48% | 1023 hPa | 0 mm | - | - | - |
| 1777524305 | 25° C | 48% | 1023 hPa | 0 mm | - | - | - |
| 1777523405 | 25° C | 50% | 1023.2 hPa | 0 mm | - | - | - |
| 1777522505 | 25° C | 47% | 1023.3 hPa | 0 mm | - | - | - |
| 1777521605 | 25.56° C | 50% | 1023.3 hPa | 0 mm | - | - | - |
| 1777520704 | 25.56° C | 49% | 1023.4 hPa | 0 mm | - | - | - |
| 1777519805 | 25° C | 51% | 1023.4 hPa | 0 mm | - | - | - |
| 1777518905 | 23.33° C | 54% | 1023.7 hPa | 0 mm | - | - | - |
| 1777518005 | 23.33° C | 53% | 1023.9 hPa | 0 mm | - | - | - |
| 1777517105 | 23.89° C | 54% | 1024.2 hPa | 0 mm | - | - | - |
| 1777516204 | 23.33° C | 54% | 1024.6 hPa | 0 mm | - | - | - |
| 1777515305 | 22.78° C | 57% | 1024.8 hPa | 0 mm | - | - | - |
| 1777514404 | 22.22° C | 59% | 1024.9 hPa | 0 mm | - | - | - |
* Rain latest hour (hover to see other rain measurements)
** Current wind speed in m/s (hover to see current wind gust speed)